Weather observations for the past three days for
Claremore, Claremore Regional Airport
Imperial (Metric)
Date Time (cdt) Wind (mph) Vis. (mi.) Weather Sky Cond. Temperature (ºF) Relative Humidity Wind Chill (°F) Heat Index (°F) Pressure Precipitation (in)
Air Dwpt 6 hour altimeter (in) sea level (mb) 1 hr 3 hr 6 hr
Max. Min.
08 09:55 S 14 G 22 10.00 Fair CLR 66.2 57.2 73% 29.93 0.0
08 09:35 S 15 G 21 10.00 Fair CLR 64.4 57.2 78% 29.94 0.0
08 09:15 S 13 G 18 10.00 Fair CLR 62.6 57.2 83% 29.94 0.0
08 08:55 S 13 G 18 10.00 Fair CLR 62.6 57.2 83% 29.94 0.0
08 08:15 S 13 10.00 Fair CLR 59 55.4 88% 29.94 0.0
08 07:35 S 7 10.00 Fair CLR 53.6 53.6 100% 29.94 0.0
08 07:15 SE 5 10.00 Fair CLR 51.8 51.8 100% 29.94 0.0
08 06:55 SE 5 10.00 Fair CLR 50 50 100% 49 29.94 0.0
08 06:35 Calm 10.00 Fair CLR 50 50 100% 29.93 0.0
08 06:15 Calm 10.00 Fair CLR 50 50 100% 29.93 0.0
08 05:55 S 5 10.00 Fair CLR 51.8 50 94% 29.92 0.0
08 05:35 S 5 10.00 Fair CLR 51.8 50 94% 29.92 0.0
08 05:15 S 3 10.00 Fair CLR 51.8 50 94% 29.91 0.0
08 04:55 S 6 10.00 Fair CLR 51.8 50 94% 29.9 0.0
08 04:35 S 6 10.00 Fair CLR 51.8 50 94% 29.9 0.0
08 04:15 S 5 10.00 Fair CLR 51.8 50 94% 29.89 0.0
08 03:55 SE 6 10.00 Fair CLR 53.6 50 88% 29.9 0.0
08 03:35 S 6 10.00 Fair CLR 55.4 48.2 77% 29.9 0.0
08 03:15 S 9 G 15 10.00 Fair CLR 55.4 48.2 77% 29.9 0.0
08 02:35 S 8 10.00 Fair CLR 55.4 48.2 77% 29.92 0.0
08 02:15 S 10 10.00 Fair CLR 57.2 48.2 72% 29.92 0.0
08 01:55 S 10 10.00 Fair CLR 57.2 48.2 72% 29.93 0.0
08 01:35 S 9 9.00 Fair CLR 55.4 48.2 77% 29.93 0.0
08 01:15 S 9 0.50 Light Rain Haze VV005 57.2 50 77% 29.94 0.0
08 00:55 S 8 5.00 Fair with Haze CLR 55.4 50 82% 29.94 0.0
08 00:35 S 6 7.00 Fair CLR 53.6 50 88% 29.94 0.0
08 00:15 S 7 7.00 Fair CLR 55.4 50 82% 29.94 0.0
07 23:55 S 7 7.00 Fair CLR 53.6 50 88% 29.94 0.0
07 23:35 SE 6 7.00 Fair CLR 53.6 50 88% 29.95 0.0
07 23:15 SE 7 7.00 Fair CLR 55.4 50 82% 29.95 0.0
07 22:55 SE 6 8.00 Fair CLR 55.4 48.2 77% 29.95 0.0
07 22:35 SE 7 8.00 Fair CLR 55.4 48.2 77% 29.95 0.0
07 21:55 S 7 7.00 Fair CLR 57.2 48.2 72% 29.95 0.0
07 21:35 S 6 7.00 Fair CLR 57.2 50 77% 29.95 0.0
07 21:15 S 7 6.00 Fair with Haze CLR 59 48.2 68% 29.95 0.0
07 20:55 S 8 6.00 Fair with Haze CLR 59 48.2 68% 29.94 0.0
07 20:35 S 7 7.00 Fair CLR 59 48.2 68% 29.93 0.0
07 20:15 S 6 10.00 Fair CLR 62.6 46.4 56% 29.92 0.0
07 19:55 S 6 10.00 Fair CLR 66.2 46.4 49% 29.92 0.0
07 19:35 S 8 10.00 Fair CLR 68 46.4 46% 29.92 0.0
07 19:15 S 8 10.00 Fair CLR 69.8 46.4 43% 29.92 0.0
07 18:55 S 7 10.00 Fair CLR 69.8 44.6 40% 29.93 0.0
07 18:35 SW 9 10.00 Fair CLR 71.6 44.6 38% 29.93 0.0
07 18:15 SW 9 9.00 Light Rain CLR 71.6 44.6 38% 29.93 0.0
07 17:55 SW 9 9.00 Light Rain CLR 71.6 44.6 38% 29.94 0.0
07 17:35 SW 9 10.00 Fair CLR 71.6 44.6 38% 29.94 0.0
07 17:15 SW 8 G 15 10.00 Fair CLR 71.6 44.6 38% 29.95 0.0
07 16:55 SW 6 10.00 Fair CLR 71.6 44.6 38% 29.95 0.0
07 16:35 Vrbl 6 10.00 Fair CLR 71.6 44.6 38% 29.96 0.0
07 16:15 SW 10 G 16 10.00 Fair CLR 71.6 44.6 38% 29.96 0.0
07 15:55 Vrbl 6 G 13 10.00 Fair CLR 71.6 44.6 38% 29.98 0.0
07 15:35 W 7 G 20 10.00 Fair CLR 69.8 44.6 40% 29.99 0.0
07 15:15 SW 12 G 20 10.00 Fair CLR 71.6 44.6 38% 29.99 0.0
07 14:35 W 13 10.00 Fair CLR 69.8 44.6 40% 30.01 0.0
07 14:15 Vrbl 5 G 15 10.00 Fair CLR 69.8 44.6 40% 30.02 0.0
07 13:55 SW 9 G 18 10.00 Fair CLR 69.8 44.6 40% 30.03 0.0
07 13:35 SW 9 9.00 Fair CLR 68 42.8 40% 30.03 0.0
07 13:15 SW 8 G 18 10.00 Fair CLR 68 42.8 40% 30.04 0.0
07 12:55 W 10 G 16 10.00 Fair CLR 68 42.8 40% 30.05 0.0
07 12:15 SW 9 10.00 Fair CLR 64.4 42.8 46% 30.07 0.0
07 11:55 SW 12 10.00 Fair CLR 66.2 42.8 43% 30.08 0.0
07 11:35 Vrbl 6 G 13 10.00 Fair CLR 64.4 42.8 46% 30.08 0.0
07 10:55 SW 7 G 14 10.00 Fair CLR 64.4 41 43% 30.09 0.0
07 10:35 S 7 G 15 10.00 Fair CLR 62.6 41 45% 30.1 0.0
07 10:15 SW 10 10.00 Fair CLR 62.6 42.8 49% 30.11 0.0
07 09:55 Vrbl 5 10.00 Fair CLR 60.8 42.8 52% 30.12 0.0
07 09:35 Calm 9.00 Fair CLR 59 46.4 63% 30.11 0.0
07 09:15 SW 5 10.00 Fair CLR 55.4 46.4 72% 30.11 0.0
07 08:55 Calm 10.00 Fair CLR 53.6 48.2 82% 30.11 0.0
07 08:35 SW 3 10.00 Fair CLR 51.8 48.2 88% 30.11 0.0
07 08:15 W 3 10.00 Fair CLR 50 48.2 94% 30.11 0.0
07 07:55 Calm 10.00 Fair CLR 48.2 48.2 100% 30.11 0.0
07 07:35 Calm 10.00 Fair CLR 46.4 46.4 100% 30.1 0.0
07 07:15 Calm 10.00 Fair CLR 42.8 42.8 100% 30.1 0.0
07 06:55 Calm 9.00 Fair CLR 39.2 39.2 100% 30.09 0.0
07 06:35 Calm 9.00 Fair CLR 39.2 39.2 100% 30.09 0.0
07 05:55 Calm 10.00 Partly Cloudy SCT095 41 41 100% 30.08 0.0
07 05:35 Calm 10.00 Overcast OVC095 41 41 100% 30.08 0.0
07 05:15 Calm 10.00 Mostly Cloudy BKN095 41 41 100% 30.08 0.0
07 04:55 Calm 10.00 Fair CLR 41 41 100% 30.08 0.0
07 04:35 Calm 10.00 Fair CLR 41 41 100% 30.07 0.0
07 04:15 Calm 10.00 Fair CLR 41 41 100% 30.07 0.0
07 03:55 Calm 10.00 Fair CLR 41 41 100% 30.08 0.0
07 03:35 NE 3 10.00 Fair CLR 41 41 100% 30.09 0.0
07 03:15 Calm 10.00 Fair CLR 41 41 100% 30.08 0.0
07 02:55 Calm 10.00 Fair CLR 41 41 100% 30.09 0.0
07 02:35 Calm 10.00 Fair CLR 42.8 42.8 100% 30.09 0.0
07 02:15 Calm 10.00 Fair CLR 42.8 42.8 100% 30.09 0.0
07 01:55 Calm 10.00 Fair CLR 42.8 42.8 100% 30.09 0.0
07 01:35 NE 3 10.00 Fair CLR 46.4 42.8 87% 30.09 0.0
07 01:15 NE 6 10.00 Fair CLR 44.6 42.8 93% 42 30.08 0.0
07 00:55 NE 5 10.00 Fair CLR 46.4 42.8 87% 45 30.08 0.0
07 00:35 NE 5 10.00 Fair CLR 46.4 42.8 87% 45 30.09 0.0
07 00:15 N 3 10.00 Fair CLR 46.4 42.8 87% 30.08 0.0
06 23:35 NE 5 10.00 Fair CLR 46.4 44.6 93% 45 30.08 0.0
06 23:15 NE 3 10.00 Fair CLR 46.4 44.6 93% 30.08 0.0
06 22:55 NE 3 10.00 Fair CLR 46.4 44.6 93% 30.08 0.0
06 22:35 NE 3 10.00 Fair CLR 48.2 44.6 87% 30.07 0.0
06 22:15 Calm 10.00 Fair CLR 48.2 44.6 87% 30.07 0.0
06 21:55 N 3 10.00 Fair CLR 50 44.6 82% 30.06 0.0
06 21:35 N 5 10.00 Fair CLR 51.8 44.6 77% 30.06 0.0
06 20:55 N 6 10.00 Fair CLR 53.6 42.8 67% 30.05 0.0
06 20:35 N 5 10.00 Fair CLR 53.6 42.8 67% 30.04 0.0
06 20:15 N 6 10.00 Fair CLR 55.4 42.8 63% 30.03 0.0
06 19:55 N 6 10.00 Fair CLR 59 42.8 55% 30.03 0.0
06 19:35 NE 6 G 12 10.00 Fair CLR 60.8 41 48% 30.02 0.0
06 19:15 NE 8 G 15 10.00 Fair CLR 62.6 41 45% 30.02 0.0
06 18:55 NE 9 10.00 A Few Clouds FEW060 62.6 39.2 42% 30.01 0.0
06 18:35 Vrbl 7 G 15 10.00 A Few Clouds FEW060 64.4 41 43% 30.01 0.0
06 17:55 NE 9 G 18 10.00 Fair CLR 64.4 41 43% 30 0.0
06 17:35 NE 13 G 21 10.00 A Few Clouds FEW055 64.4 41 43% 30 0.0
06 17:15 N 15 10.00 Partly Cloudy SCT050 62.6 42.8 49% 29.99 0.0
06 16:55 N 12 10.00 Partly Cloudy SCT050 64.4 42.8 46% 29.98 0.0
06 16:35 NE 9 G 17 10.00 Partly Cloudy SCT055 64.4 44.6 49% 29.99 0.0
06 16:15 N 12 G 17 10.00 Mostly Cloudy BKN050 64.4 42.8 46% 29.99 0.0
06 15:55 NE 8 G 17 10.00 Mostly Cloudy SCT050 BKN055 62.6 42.8 49% 30 0.0
06 15:35 NE 13 G 18 10.00 A Few Clouds FEW048 64.4 42.8 46% 30.01 0.0
06 15:15 NE 9 G 23 10.00 Partly Cloudy SCT048 62.6 42.8 49% 30.01 0.0
06 14:55 NE 8 G 20 10.00 Mostly Cloudy BKN048 62.6 42.8 49% 30.01 0.0
06 14:35 N 9 G 18 10.00 Partly Cloudy SCT047 64.4 44.6 49% 30.02 0.0
06 14:15 NE 14 10.00 Mostly Cloudy BKN047 62.6 44.6 52% 30.03 0.0
06 13:55 NE 8 10.00 Mostly Cloudy BKN046 62.6 46.4 56% 30.03 0.0
06 13:35 NE 9 10.00 Partly Cloudy SCT042 60.8 44.6 55% 30.04 0.0
06 13:15 NE 14 10.00 Partly Cloudy SCT041 60.8 44.6 55% 30.04 0.0
06 12:55 NE 16 10.00 Partly Cloudy FEW041 SCT050 60.8 44.6 55% 30.05 0.0
06 12:35 NE 13 G 21 10.00 Overcast OVC055 60.8 44.6 55% 30.07 0.0
06 12:15 NE 13 G 20 10.00 Overcast OVC055 60.8 44.6 55% 30.08 0.0
06 11:55 E 12 10.00 Overcast OVC055 59 44.6 59% 30.08 0.0
06 11:35 NE 10 G 17 10.00 Overcast OVC055 59 44.6 59% 30.08 0.0
06 11:15 NE 10 G 16 9.00 Mostly Cloudy BKN050 59 44.6 59% 30.08 0.0
06 10:55 NE 10 G 17 10.00 Fair CLR 59 46.4 63% 30.06 0.0
06 10:35 NE 12 G 18 10.00 Fair CLR 57.2 44.6 63% 30.04 0.0
06 10:15 NE 14 G 21 10.00 Fair CLR 55.4 44.6 67% 30.03 0.0
06 09:55 NE 16 10.00 Fair CLR 53.6 42.8 67% 30.04 0.0
06 09:35 NE 15 10.00 Fair CLR 53.6 42.8 67% 30.03 0.0
06 09:15 NE 16 G 23 10.00 Fair CLR 51.8 42.8 72% 30.03 0.0
06 08:55 NE 14 G 22 10.00 Fair CLR 51.8 42.8 72% 30.03 0.0
06 08:35 NE 14 10.00 A Few Clouds FEW055 50 44.6 82% 45 30.03 0.0
06 08:15 NE 13 G 24 10.00 Fair CLR 50 44.6 82% 46 30.03 0.0
06 07:55 NE 13 10.00 Fair CLR 50 44.6 82% 46 30.03 0.0
06 07:35 NE 16 10.00 Partly Cloudy SCT050 50 44.6 82% 45 30.02 0.0
06 07:15 NE 12 G 22 10.00 Overcast OVC050 48.2 46.4 94% 44 30.01 0.0
06 06:55 N 9 G 20 10.00 Overcast OVC050 48.2 46.4 94% 45 30.01 0.0
06 06:35 N 12 G 17 10.00 Overcast OVC049 48.2 46.4 94% 44 30.02 0.0
06 06:15 N 9 G 15 10.00 Overcast OVC047 48.2 46.4 94% 45 30.01 0.0
06 05:55 N 9 10.00 Overcast OVC047 48.2 46.4 94% 45 30 0.0
06 05:35 NE 8 10.00 Overcast OVC048 48.2 44.6 87% 45 30 0.0
06 05:15 N 8 10.00 Overcast OVC048 50 44.6 82% 47 29.99 0.0
06 04:55 N 8 G 15 10.00 Overcast OVC048 50 44.6 82% 47 29.98 0.0
06 04:35 N 10 G 17 10.00 Overcast OVC047 48.2 44.6 87% 44 29.95 0.0
06 04:15 N 8 G 17 10.00 Overcast OVC046 50 44.6 82% 47 29.94 0.0
06 03:55 N 10 G 17 10.00 Overcast OVC043 50 44.6 82% 46 29.93 0.0
06 03:35 NE 12 10.00 Overcast OVC042 50 44.6 82% 46 29.92 0.0
06 03:15 NE 13 G 20 10.00 Overcast OVC043 50 44.6 82% 46 29.92 0.0
06 02:55 NE 8 G 16 10.00 Overcast OVC043 50 44.6 82% 47 29.92 0.0
06 02:35 NE 9 G 16 10.00 Overcast OVC041 50 44.6 82% 47 29.91 0.0
06 02:15 N 10 G 17 10.00 Overcast BKN040 OVC050 50 44.6 82% 46 29.91 0.0
06 01:55 NE 10 G 18 10.00 Overcast BKN039 OVC050 50 44.6 82% 46 29.91 0.0
06 01:35 NE 8 G 17 10.00 Overcast OVC039 50 44.6 82% 47 29.91 0.0
06 01:15 NE 10 G 22 10.00 Overcast OVC037 50 42.8 76% 46 29.91 0.0
06 00:55 NE 15 G 24 10.00 Overcast OVC036 50 42.8 76% 45 29.91 0.0
06 00:35 NE 13 G 22 10.00 Overcast BKN036 BKN042 OVC050 50 44.6 82% 46 29.91 0.0
06 00:15 NE 13 G 21 10.00 Overcast BKN036 BKN041 OVC050 50 44.6 82% 46 29.9 0.0
05 23:35 N 13 G 20 10.00 Overcast OVC034 50 44.6 82% 46 29.91 0.0
05 23:15 N 10 G 18 10.00 Overcast OVC031 50 46.4 88% 46 29.92 0.0
05 22:55 NE 13 G 18 10.00 Overcast OVC029 50 46.4 88% 46 29.91 0.0
05 22:35 NE 10 G 24 10.00 Overcast SCT021 OVC029 50 46.4 88% 46 29.91 0.0
05 22:15 N 8 G 24 10.00 Overcast OVC020 50 46.4 88% 47 29.91 0.0
05 21:55 NE 16 G 25 9.00 Overcast OVC020 50 46.4 88% 45 29.88 0.0
05 21:35 NE 13 G 22 10.00 Overcast OVC020 50 46.4 88% 46 29.87 0.0
05 21:15 NE 10 G 22 10.00 Overcast OVC019 50 46.4 88% 46 29.86 0.0
05 20:55 NE 9 G 23 10.00 Overcast BKN020 OVC030 50 46.4 88% 47 29.84 0.0
05 20:35 NE 10 G 20 10.00 Overcast OVC020 50 46.4 88% 46 29.83 0.0
05 20:15 NE 14 G 25 10.00 Overcast OVC019 50 46.4 88% 45 29.83 0.0
05 19:55 NE 10 G 22 10.00 Overcast OVC021 50 46.4 88% 46 29.83 0.0
05 19:35 NE 15 G 26 10.00 Overcast BKN022 OVC028 50 46.4 88% 45 29.81 0.0
05 19:15 NE 13 G 24 10.00 Light Rain OVC026 50 46.4 88% 46 29.82 0.0
05 18:55 NE 16 G 26 10.00 Overcast OVC024 51.8 44.6 77% 29.81 0.0
05 18:35 NE 18 G 28 10.00 Overcast OVC023 51.8 44.6 77% 29.81 0.0
05 18:15 NE 17 G 26 10.00 Overcast OVC023 51.8 44.6 77% 29.81 0.0
05 17:55 NE 17 G 26 10.00 Overcast OVC025 51.8 44.6 77% 29.79 0.0
05 17:35 NE 17 G 26 10.00 Overcast OVC025 51.8 44.6 77% 29.78 0.0
05 17:15 NE 16 G 25 10.00 Overcast OVC025 53.6 44.6 72% 29.78 0.0
05 16:55 NE 14 G 24 10.00 Overcast OVC024 53.6 46.4 77% 29.78 0.0
05 16:35 NE 20 G 33 10.00 Overcast OVC023 53.6 46.4 77% 29.78 0.0
05 16:15 NE 20 G 32 10.00 Overcast OVC023 53.6 46.4 77% 29.76 0.0
05 15:55 NE 17 G 33 10.00 Overcast OVC022 53.6 48.2 82% 29.77 0.0
05 15:35 N 17 G 28 10.00 Overcast OVC019 53.6 48.2 82% 29.76 0.0
05 15:15 N 14 G 25 10.00 Overcast OVC016 53.6 50 88% 29.76 0.0
05 14:55 NE 14 G 25 10.00 Overcast OVC016 53.6 51.8 94% 29.77 0.0
05 14:35 NE 14 G 29 10.00 Overcast OVC017 53.6 51.8 94% 29.76 0.0
05 14:15 NE 13 G 28 10.00 Overcast OVC017 55.4 51.8 88% 29.75 0.0
05 13:55 NE 14 G 26 10.00 Overcast OVC017 55.4 53.6 94% 29.74 0.0
05 13:35 NE 13 G 24 10.00 Overcast OVC015 55.4 53.6 94% 29.75 0.0
05 13:15 NE 16 G 26 10.00 Overcast OVC015 55.4 53.6 94% 29.73 0.0
05 12:55 NE 18 G 29 10.00 Overcast OVC015 55.4 53.6 94% 29.72 0.0
05 12:35 NE 18 G 29 10.00 Overcast OVC014 55.4 55.4 100% 29.72 0.0
05 12:15 NE 16 G 30 10.00 Overcast OVC012 55.4 55.4 100% 29.7 0.0
05 11:55 NE 16 G 29 10.00 Overcast OVC012 55.4 55.4 100% 29.69 0.0
05 11:35 NE 20 G 26 10.00 Overcast OVC011 57.2 57.2 100% 29.7 0.0
05 11:15 NE 17 G 29 10.00 Overcast OVC011 57.2 57.2 100% 29.69 0.0
05 10:35 N 15 G 23 10.00 Overcast OVC015 59 59 100% 29.67 0.0
05 10:15 NE 13 G 21 10.00 Overcast BKN010 OVC015 60.8 60.8 100% 29.67 0.0
Date Time (cdt) Wind (mph) Vis. (mi.) Weather Sky Cond. Air Dwpt Max. Min. Relative Humidity Wind Chill (°F) Heat Index (°F) altimeter (in) sea level (mb) 1 hr 3 hr 6 hr
6 hour
Temperature (ºF) Pressure Precipitation (in)